sensor_id;sensor_type;location;lat;lon;timestamp;P1;durP1;ratioP1;P2;durP2;ratioP2
51020;SDS011;38907;45.562;8.856;2022-07-12T00:04:56;3.55;;;1.38;;
51020;SDS011;38907;45.562;8.856;2022-07-12T00:09:59;11.35;;;1.77;;
51020;SDS011;38907;45.562;8.856;2022-07-12T00:15:03;7.15;;;2.08;;
51020;SDS011;38907;45.562;8.856;2022-07-12T00:20:07;3.97;;;1.70;;
51020;SDS011;38907;45.562;8.856;2022-07-12T00:25:10;4.90;;;1.50;;
51020;SDS011;38907;45.562;8.856;2022-07-12T00:30:14;5.38;;;1.63;;
51020;SDS011;38907;45.562;8.856;2022-07-12T00:35:17;4.88;;;1.50;;
51020;SDS011;38907;45.562;8.856;2022-07-12T00:40:19;5.35;;;1.90;;
51020;SDS011;38907;45.562;8.856;2022-07-12T00:45:23;6.53;;;1.60;;
51020;SDS011;38907;45.562;8.856;2022-07-12T00:50:26;3.80;;;1.42;;
51020;SDS011;38907;45.562;8.856;2022-07-12T00:55:29;4.00;;;1.52;;
51020;SDS011;38907;45.562;8.856;2022-07-12T01:00:33;7.68;;;1.55;;
51020;SDS011;38907;45.562;8.856;2022-07-12T01:05:36;5.97;;;1.70;;
51020;SDS011;38907;45.562;8.856;2022-07-12T01:10:39;4.30;;;1.48;;
51020;SDS011;38907;45.562;8.856;2022-07-12T01:15:43;4.15;;;1.30;;
51020;SDS011;38907;45.562;8.856;2022-07-12T01:20:48;2.28;;;1.40;;
51020;SDS011;38907;45.562;8.856;2022-07-12T01:25:53;4.00;;;1.48;;
51020;SDS011;38907;45.562;8.856;2022-07-12T01:30:56;3.17;;;1.35;;
51020;SDS011;38907;45.562;8.856;2022-07-12T01:35:58;2.75;;;1.42;;
51020;SDS011;38907;45.562;8.856;2022-07-12T01:41:03;2.72;;;1.15;;
51020;SDS011;38907;45.562;8.856;2022-07-12T01:46:07;3.97;;;1.20;;
51020;SDS011;38907;45.562;8.856;2022-07-12T01:51:10;4.75;;;1.30;;
51020;SDS011;38907;45.562;8.856;2022-07-12T01:56:14;3.53;;;1.35;;
51020;SDS011;38907;45.562;8.856;2022-07-12T02:01:17;3.75;;;1.30;;
51020;SDS011;38907;45.562;8.856;2022-07-12T02:06:20;2.95;;;1.10;;
51020;SDS011;38907;45.562;8.856;2022-07-12T02:11:25;3.45;;;1.23;;
51020;SDS011;38907;45.562;8.856;2022-07-12T02:16:27;2.05;;;1.33;;
51020;SDS011;38907;45.562;8.856;2022-07-12T02:21:30;3.28;;;1.08;;
51020;SDS011;38907;45.562;8.856;2022-07-12T02:26:35;5.15;;;1.65;;
51020;SDS011;38907;45.562;8.856;2022-07-12T02:31:38;2.65;;;1.00;;
51020;SDS011;38907;45.562;8.856;2022-07-12T02:36:41;1.50;;;0.90;;
51020;SDS011;38907;45.562;8.856;2022-07-12T02:41:45;1.88;;;1.00;;
51020;SDS011;38907;45.562;8.856;2022-07-12T02:46:47;4.53;;;1.63;;
51020;SDS011;38907;45.562;8.856;2022-07-12T02:51:50;2.85;;;1.27;;
51020;SDS011;38907;45.562;8.856;2022-07-12T02:56:54;2.30;;;1.02;;
51020;SDS011;38907;45.562;8.856;2022-07-12T03:01:56;1.80;;;1.10;;
51020;SDS011;38907;45.562;8.856;2022-07-12T03:06:59;3.17;;;1.10;;
51020;SDS011;38907;45.562;8.856;2022-07-12T03:12:03;1.88;;;1.10;;
51020;SDS011;38907;45.562;8.856;2022-07-12T03:17:07;3.05;;;1.27;;
51020;SDS011;38907;45.562;8.856;2022-07-12T03:22:10;1.02;;;0.88;;
51020;SDS011;38907;45.562;8.856;2022-07-12T03:27:14;1.63;;;1.00;;
51020;SDS011;38907;45.562;8.856;2022-07-12T03:32:16;2.22;;;1.10;;
51020;SDS011;38907;45.562;8.856;2022-07-12T03:37:19;3.80;;;1.30;;
51020;SDS011;38907;45.562;8.856;2022-07-12T03:42:23;1.88;;;1.00;;
51020;SDS011;38907;45.562;8.856;2022-07-12T03:47:26;12.32;;;1.40;;
51020;SDS011;38907;45.562;8.856;2022-07-12T03:52:28;3.63;;;1.10;;
51020;SDS011;38907;45.562;8.856;2022-07-12T03:57:32;1.20;;;0.75;;
51020;SDS011;38907;45.562;8.856;2022-07-12T04:02:35;2.97;;;1.02;;
51020;SDS011;38907;45.562;8.856;2022-07-12T04:07:39;3.90;;;0.95;;
51020;SDS011;38907;45.562;8.856;2022-07-12T04:12:43;5.13;;;1.77;;
51020;SDS011;38907;45.562;8.856;2022-07-12T04:17:46;2.15;;;1.10;;
51020;SDS011;38907;45.562;8.856;2022-07-12T04:22:48;8.45;;;1.70;;
51020;SDS011;38907;45.562;8.856;2022-07-12T04:27:52;2.75;;;1.00;;
51020;SDS011;38907;45.562;8.856;2022-07-12T04:32:55;1.13;;;0.90;;
51020;SDS011;38907;45.562;8.856;2022-07-12T04:37:58;1.63;;;1.20;;
51020;SDS011;38907;45.562;8.856;2022-07-12T04:43:02;3.40;;;1.00;;
51020;SDS011;38907;45.562;8.856;2022-07-12T04:48:05;1.65;;;1.10;;
51020;SDS011;38907;45.562;8.856;2022-07-12T04:53:07;5.35;;;1.33;;
51020;SDS011;38907;45.562;8.856;2022-07-12T04:58:11;2.97;;;1.20;;
51020;SDS011;38907;45.562;8.856;2022-07-12T05:03:14;2.95;;;1.17;;
51020;SDS011;38907;45.562;8.856;2022-07-12T05:08:17;4.28;;;1.17;;
51020;SDS011;38907;45.562;8.856;2022-07-12T05:13:21;2.00;;;1.35;;
51020;SDS011;38907;45.562;8.856;2022-07-12T05:18:24;6.32;;;1.02;;
51020;SDS011;38907;45.562;8.856;2022-07-12T05:23:26;3.20;;;1.00;;
51020;SDS011;38907;45.562;8.856;2022-07-12T05:28:30;4.13;;;1.10;;
51020;SDS011;38907;45.562;8.856;2022-07-12T05:33:33;3.75;;;1.10;;
51020;SDS011;38907;45.562;8.856;2022-07-12T05:38:36;3.55;;;1.50;;
51020;SDS011;38907;45.562;8.856;2022-07-12T05:43:40;5.63;;;1.10;;
51020;SDS011;38907;45.562;8.856;2022-07-12T05:48:44;7.50;;;1.40;;
51020;SDS011;38907;45.562;8.856;2022-07-12T05:53:46;6.15;;;1.40;;
51020;SDS011;38907;45.562;8.856;2022-07-12T05:58:50;3.63;;;1.27;;
51020;SDS011;38907;45.562;8.856;2022-07-12T06:03:53;5.35;;;1.40;;
51020;SDS011;38907;45.562;8.856;2022-07-12T06:08:56;3.83;;;1.38;;
51020;SDS011;38907;45.562;8.856;2022-07-12T06:14:00;2.88;;;1.10;;
51020;SDS011;38907;45.562;8.856;2022-07-12T06:19:03;3.47;;;1.20;;
51020;SDS011;38907;45.562;8.856;2022-07-12T06:24:05;2.40;;;0.82;;
51020;SDS011;38907;45.562;8.856;2022-07-12T06:29:09;5.85;;;1.27;;
51020;SDS011;38907;45.562;8.856;2022-07-12T06:34:12;2.35;;;1.10;;
51020;SDS011;38907;45.562;8.856;2022-07-12T06:39:15;4.35;;;1.08;;
51020;SDS011;38907;45.562;8.856;2022-07-12T06:44:19;11.55;;;1.85;;
51020;SDS011;38907;45.562;8.856;2022-07-12T06:49:24;4.13;;;1.25;;
51020;SDS011;38907;45.562;8.856;2022-07-12T06:54:27;5.10;;;1.33;;
51020;SDS011;38907;45.562;8.856;2022-07-12T06:59:31;3.22;;;1.20;;
51020;SDS011;38907;45.562;8.856;2022-07-12T07:04:33;2.28;;;1.10;;
51020;SDS011;38907;45.562;8.856;2022-07-12T07:09:36;1.55;;;0.90;;
51020;SDS011;38907;45.562;8.856;2022-07-12T07:14:40;4.05;;;1.05;;
51020;SDS011;38907;45.562;8.856;2022-07-12T07:19:43;2.40;;;0.90;;
51020;SDS011;38907;45.562;8.856;2022-07-12T07:24:45;2.03;;;1.20;;
51020;SDS011;38907;45.562;8.856;2022-07-12T07:29:49;2.95;;;1.10;;
51020;SDS011;38907;45.562;8.856;2022-07-12T07:35:09;4.97;;;1.00;;
51020;SDS011;38907;45.562;8.856;2022-07-12T07:40:12;2.53;;;1.10;;
51020;SDS011;38907;45.562;8.856;2022-07-12T07:45:16;5.18;;;1.45;;
51020;SDS011;38907;45.562;8.856;2022-07-12T07:50:18;2.00;;;1.08;;
51020;SDS011;38907;45.562;8.856;2022-07-12T07:55:21;2.88;;;1.20;;
51020;SDS011;38907;45.562;8.856;2022-07-12T08:00:25;3.58;;;1.30;;
51020;SDS011;38907;45.562;8.856;2022-07-12T08:05:28;2.42;;;0.80;;
51020;SDS011;38907;45.562;8.856;2022-07-12T08:10:31;9.05;;;1.08;;
51020;SDS011;38907;45.562;8.856;2022-07-12T08:15:35;2.67;;;0.90;;
51020;SDS011;38907;45.562;8.856;2022-07-12T08:20:38;1.75;;;0.82;;
51020;SDS011;38907;45.562;8.856;2022-07-12T08:25:40;4.28;;;1.20;;
51020;SDS011;38907;45.562;8.856;2022-07-12T08:30:44;2.20;;;1.20;;
51020;SDS011;38907;45.562;8.856;2022-07-12T08:35:47;5.07;;;1.10;;
51020;SDS011;38907;45.562;8.856;2022-07-12T08:40:49;1.70;;;1.20;;
51020;SDS011;38907;45.562;8.856;2022-07-12T08:45:54;1.27;;;0.90;;
51020;SDS011;38907;45.562;8.856;2022-07-12T08:50:59;2.25;;;1.20;;
51020;SDS011;38907;45.562;8.856;2022-07-12T08:56:04;2.70;;;1.30;;
51020;SDS011;38907;45.562;8.856;2022-07-12T09:01:08;3.45;;;1.52;;
51020;SDS011;38907;45.562;8.856;2022-07-12T09:06:11;2.08;;;1.20;;
51020;SDS011;38907;45.562;8.856;2022-07-12T09:11:14;3.58;;;1.40;;
51020;SDS011;38907;45.562;8.856;2022-07-12T09:16:20;5.97;;;1.60;;
51020;SDS011;38907;45.562;8.856;2022-07-12T09:21:24;5.15;;;1.27;;
51020;SDS011;38907;45.562;8.856;2022-07-12T09:26:29;3.58;;;2.55;;
51020;SDS011;38907;45.562;8.856;2022-07-12T09:31:41;4.95;;;1.13;;
51020;SDS011;38907;45.562;8.856;2022-07-12T09:36:58;3.92;;;1.38;;
51020;SDS011;38907;45.562;8.856;2022-07-12T09:42:01;5.22;;;1.60;;
51020;SDS011;38907;45.562;8.856;2022-07-12T09:47:08;3.45;;;1.63;;
51020;SDS011;38907;45.562;8.856;2022-07-12T09:52:15;4.93;;;1.23;;
51020;SDS011;38907;45.562;8.856;2022-07-12T09:57:26;3.10;;;1.33;;
51020;SDS011;38907;45.562;8.856;2022-07-12T10:02:33;6.28;;;1.90;;
51020;SDS011;38907;45.562;8.856;2022-07-12T10:07:36;3.30;;;1.35;;
51020;SDS011;38907;45.562;8.856;2022-07-12T10:12:39;2.60;;;1.33;;
51020;SDS011;38907;45.562;8.856;2022-07-12T10:17:50;4.25;;;1.40;;
51020;SDS011;38907;45.562;8.856;2022-07-12T10:22:58;3.97;;;1.50;;
51020;SDS011;38907;45.562;8.856;2022-07-12T10:34:09;4.95;;;1.38;;
51020;SDS011;38907;45.562;8.856;2022-07-12T10:39:13;2.13;;;1.40;;
51020;SDS011;38907;45.562;8.856;2022-07-12T10:44:15;6.15;;;2.00;;
51020;SDS011;38907;45.562;8.856;2022-07-12T10:49:37;4.55;;;1.50;;
51020;SDS011;38907;45.562;8.856;2022-07-12T10:54:47;4.57;;;1.60;;
51020;SDS011;38907;45.562;8.856;2022-07-12T11:00:18;5.03;;;1.90;;
51020;SDS011;38907;45.562;8.856;2022-07-12T11:05:27;6.75;;;1.83;;
51020;SDS011;38907;45.562;8.856;2022-07-12T11:10:31;4.65;;;1.60;;
51020;SDS011;38907;45.562;8.856;2022-07-12T11:15:33;4.93;;;2.03;;
51020;SDS011;38907;45.562;8.856;2022-07-12T11:20:38;5.28;;;1.65;;
51020;SDS011;38907;45.562;8.856;2022-07-12T11:25:41;4.43;;;1.75;;
51020;SDS011;38907;45.562;8.856;2022-07-12T11:30:48;8.35;;;1.83;;
51020;SDS011;38907;45.562;8.856;2022-07-12T11:35:52;4.88;;;1.90;;
51020;SDS011;38907;45.562;8.856;2022-07-12T11:40:57;5.03;;;1.98;;
51020;SDS011;38907;45.562;8.856;2022-07-12T11:46:00;4.32;;;1.80;;
51020;SDS011;38907;45.562;8.856;2022-07-12T11:51:06;5.22;;;1.80;;
51020;SDS011;38907;45.562;8.856;2022-07-12T11:56:10;7.28;;;1.60;;
51020;SDS011;38907;45.562;8.856;2022-07-12T12:01:13;6.60;;;2.10;;
51020;SDS011;38907;45.562;8.856;2022-07-12T12:06:17;11.00;;;5.30;;
51020;SDS011;38907;45.562;8.856;2022-07-12T12:11:26;5.68;;;1.85;;
51020;SDS011;38907;45.562;8.856;2022-07-12T12:16:32;3.13;;;2.10;;
51020;SDS011;38907;45.562;8.856;2022-07-12T12:21:37;3.08;;;1.70;;
51020;SDS011;38907;45.562;8.856;2022-07-12T12:26:39;5.22;;;1.45;;
51020;SDS011;38907;45.562;8.856;2022-07-12T12:31:42;4.85;;;2.10;;
51020;SDS011;38907;45.562;8.856;2022-07-12T12:37:04;3.75;;;1.90;;
51020;SDS011;38907;45.562;8.856;2022-07-12T12:42:07;6.07;;;2.20;;
51020;SDS011;38907;45.562;8.856;2022-07-12T12:47:12;3.25;;;2.05;;
51020;SDS011;38907;45.562;8.856;2022-07-12T12:52:47;5.60;;;2.08;;
51020;SDS011;38907;45.562;8.856;2022-07-12T12:57:50;7.53;;;2.05;;
51020;SDS011;38907;45.562;8.856;2022-07-12T13:02:52;7.32;;;2.00;;
51020;SDS011;38907;45.562;8.856;2022-07-12T13:07:56;7.43;;;2.10;;
51020;SDS011;38907;45.562;8.856;2022-07-12T13:13:00;2.20;;;2.00;;
51020;SDS011;38907;45.562;8.856;2022-07-12T13:18:05;9.50;;;2.13;;
51020;SDS011;38907;45.562;8.856;2022-07-12T13:23:09;12.50;;;2.65;;
51020;SDS011;38907;45.562;8.856;2022-07-12T13:28:12;4.72;;;2.15;;
51020;SDS011;38907;45.562;8.856;2022-07-12T13:33:15;6.18;;;2.15;;
51020;SDS011;38907;45.562;8.856;2022-07-12T13:38:19;5.35;;;1.98;;
51020;SDS011;38907;45.562;8.856;2022-07-12T13:43:21;3.55;;;1.98;;
51020;SDS011;38907;45.562;8.856;2022-07-12T13:48:24;5.82;;;2.13;;
51020;SDS011;38907;45.562;8.856;2022-07-12T13:53:29;8.75;;;2.55;;
51020;SDS011;38907;45.562;8.856;2022-07-12T13:58:32;5.95;;;2.20;;
51020;SDS011;38907;45.562;8.856;2022-07-12T14:03:34;4.28;;;2.63;;
51020;SDS011;38907;45.562;8.856;2022-07-12T14:08:39;3.03;;;1.73;;
51020;SDS011;38907;45.562;8.856;2022-07-12T14:13:42;3.70;;;2.15;;
51020;SDS011;38907;45.562;8.856;2022-07-12T14:18:45;5.10;;;2.08;;
51020;SDS011;38907;45.562;8.856;2022-07-12T14:23:49;5.07;;;2.20;;
51020;SDS011;38907;45.562;8.856;2022-07-12T14:28:52;5.00;;;2.10;;
51020;SDS011;38907;45.562;8.856;2022-07-12T14:33:54;6.90;;;2.38;;
51020;SDS011;38907;45.562;8.856;2022-07-12T14:38:58;5.93;;;2.08;;
51020;SDS011;38907;45.562;8.856;2022-07-12T14:44:01;5.63;;;2.15;;
51020;SDS011;38907;45.562;8.856;2022-07-12T14:49:07;8.40;;;2.20;;
51020;SDS011;38907;45.562;8.856;2022-07-12T14:54:11;10.63;;;2.42;;
51020;SDS011;38907;45.562;8.856;2022-07-12T14:59:14;4.68;;;2.05;;
51020;SDS011;38907;45.562;8.856;2022-07-12T15:04:16;3.78;;;2.30;;
51020;SDS011;38907;45.562;8.856;2022-07-12T15:09:21;5.78;;;2.10;;
51020;SDS011;38907;45.562;8.856;2022-07-12T15:14:23;5.43;;;2.00;;
51020;SDS011;38907;45.562;8.856;2022-07-12T15:19:26;3.85;;;2.15;;
51020;SDS011;38907;45.562;8.856;2022-07-12T15:24:31;6.47;;;2.42;;
51020;SDS011;38907;45.562;8.856;2022-07-12T15:29:33;9.50;;;2.10;;
51020;SDS011;38907;45.562;8.856;2022-07-12T15:34:36;3.00;;;2.10;;
51020;SDS011;38907;45.562;8.856;2022-07-12T15:39:40;3.97;;;2.08;;
51020;SDS011;38907;45.562;8.856;2022-07-12T15:44:43;2.50;;;1.83;;
51020;SDS011;38907;45.562;8.856;2022-07-12T15:49:45;3.33;;;1.90;;
51020;SDS011;38907;45.562;8.856;2022-07-12T15:54:49;6.95;;;2.30;;
51020;SDS011;38907;45.562;8.856;2022-07-12T15:59:52;8.48;;;2.70;;
51020;SDS011;38907;45.562;8.856;2022-07-12T16:04:55;8.70;;;2.05;;
51020;SDS011;38907;45.562;8.856;2022-07-12T16:09:59;8.32;;;2.72;;
51020;SDS011;38907;45.562;8.856;2022-07-12T16:15:02;4.10;;;2.17;;
51020;SDS011;38907;45.562;8.856;2022-07-12T16:20:05;8.82;;;2.50;;
51020;SDS011;38907;45.562;8.856;2022-07-12T16:25:10;6.40;;;2.20;;
51020;SDS011;38907;45.562;8.856;2022-07-12T16:30:13;2.67;;;2.00;;
51020;SDS011;38907;45.562;8.856;2022-07-12T16:35:16;7.47;;;2.22;;
51020;SDS011;38907;45.562;8.856;2022-07-12T16:40:20;4.53;;;2.67;;
51020;SDS011;38907;45.562;8.856;2022-07-12T16:45:25;3.80;;;2.20;;
51020;SDS011;38907;45.562;8.856;2022-07-12T16:50:30;4.65;;;2.40;;
51020;SDS011;38907;45.562;8.856;2022-07-12T16:55:36;4.47;;;2.28;;
51020;SDS011;38907;45.562;8.856;2022-07-12T17:00:38;4.13;;;2.25;;
51020;SDS011;38907;45.562;8.856;2022-07-12T17:05:41;3.33;;;2.40;;
51020;SDS011;38907;45.562;8.856;2022-07-12T17:10:45;10.15;;;2.72;;
51020;SDS011;38907;45.562;8.856;2022-07-12T17:15:48;6.53;;;2.80;;
51020;SDS011;38907;45.562;8.856;2022-07-12T17:20:51;4.53;;;2.70;;
51020;SDS011;38907;45.562;8.856;2022-07-12T17:25:55;7.53;;;2.53;;
51020;SDS011;38907;45.562;8.856;2022-07-12T17:30:57;4.88;;;2.67;;
51020;SDS011;38907;45.562;8.856;2022-07-12T17:36:02;6.72;;;3.20;;
51020;SDS011;38907;45.562;8.856;2022-07-12T17:41:06;7.07;;;3.50;;
51020;SDS011;38907;45.562;8.856;2022-07-12T17:46:09;6.95;;;3.03;;
51020;SDS011;38907;45.562;8.856;2022-07-12T17:51:11;12.13;;;3.90;;
51020;SDS011;38907;45.562;8.856;2022-07-12T17:56:16;5.35;;;3.25;;
51020;SDS011;38907;45.562;8.856;2022-07-12T18:01:19;9.25;;;2.90;;
51020;SDS011;38907;45.562;8.856;2022-07-12T18:06:22;4.90;;;3.75;;
51020;SDS011;38907;45.562;8.856;2022-07-12T18:11:26;6.57;;;3.08;;
51020;SDS011;38907;45.562;8.856;2022-07-12T18:16:46;5.07;;;3.00;;
51020;SDS011;38907;45.562;8.856;2022-07-12T18:22:08;8.45;;;3.03;;
51020;SDS011;38907;45.562;8.856;2022-07-12T18:27:12;9.35;;;3.30;;
51020;SDS011;38907;45.562;8.856;2022-07-12T18:32:15;6.20;;;2.92;;
51020;SDS011;38907;45.562;8.856;2022-07-12T18:37:18;5.70;;;2.90;;
51020;SDS011;38907;45.562;8.856;2022-07-12T18:42:22;12.57;;;3.00;;
51020;SDS011;38907;45.562;8.856;2022-07-12T18:47:24;4.72;;;3.13;;
51020;SDS011;38907;45.562;8.856;2022-07-12T18:52:27;5.65;;;3.30;;
51020;SDS011;38907;45.562;8.856;2022-07-12T18:57:31;6.57;;;3.67;;
51020;SDS011;38907;45.562;8.856;2022-07-12T19:02:34;9.00;;;3.70;;
51020;SDS011;38907;45.562;8.856;2022-07-12T19:07:37;11.73;;;3.55;;
51020;SDS011;38907;45.562;8.856;2022-07-12T19:12:41;13.75;;;4.25;;
51020;SDS011;38907;45.562;8.856;2022-07-12T19:17:44;8.98;;;3.78;;
51020;SDS011;38907;45.562;8.856;2022-07-12T19:22:46;12.93;;;4.18;;
51020;SDS011;38907;45.562;8.856;2022-07-12T19:27:53;8.43;;;4.03;;
51020;SDS011;38907;45.562;8.856;2022-07-12T19:32:56;16.55;;;4.20;;
51020;SDS011;38907;45.562;8.856;2022-07-12T19:37:59;18.17;;;4.70;;
51020;SDS011;38907;45.562;8.856;2022-07-12T19:43:03;10.27;;;4.95;;
51020;SDS011;38907;45.562;8.856;2022-07-12T19:48:06;7.63;;;5.60;;
51020;SDS011;38907;45.562;8.856;2022-07-12T19:53:10;11.57;;;5.28;;
51020;SDS011;38907;45.562;8.856;2022-07-12T19:58:14;5.20;;;4.53;;
51020;SDS011;38907;45.562;8.856;2022-07-12T20:03:17;11.50;;;4.20;;
51020;SDS011;38907;45.562;8.856;2022-07-12T20:08:20;16.63;;;5.13;;
51020;SDS011;38907;45.562;8.856;2022-07-12T20:13:24;13.13;;;4.53;;
51020;SDS011;38907;45.562;8.856;2022-07-12T20:18:29;7.05;;;4.60;;
51020;SDS011;38907;45.562;8.856;2022-07-12T20:23:32;5.65;;;4.30;;
51020;SDS011;38907;45.562;8.856;2022-07-12T20:28:36;11.13;;;4.38;;
51020;SDS011;38907;45.562;8.856;2022-07-12T20:33:39;9.93;;;4.70;;
51020;SDS011;38907;45.562;8.856;2022-07-12T20:38:58;7.22;;;5.32;;
51020;SDS011;38907;45.562;8.856;2022-07-12T20:44:03;7.20;;;5.40;;
51020;SDS011;38907;45.562;8.856;2022-07-12T20:49:06;11.88;;;5.30;;
51020;SDS011;38907;45.562;8.856;2022-07-12T20:54:09;7.82;;;4.53;;
51020;SDS011;38907;45.562;8.856;2022-07-12T20:59:13;8.27;;;4.53;;
51020;SDS011;38907;45.562;8.856;2022-07-12T21:04:19;4.90;;;4.00;;
51020;SDS011;38907;45.562;8.856;2022-07-12T21:09:23;6.80;;;3.90;;
51020;SDS011;38907;45.562;8.856;2022-07-12T21:14:27;5.88;;;3.80;;
51020;SDS011;38907;45.562;8.856;2022-07-12T21:19:30;4.20;;;3.58;;
51020;SDS011;38907;45.562;8.856;2022-07-12T21:24:33;12.93;;;3.60;;
51020;SDS011;38907;45.562;8.856;2022-07-12T21:29:37;6.50;;;3.58;;
51020;SDS011;38907;45.562;8.856;2022-07-12T21:34:39;9.77;;;3.40;;
51020;SDS011;38907;45.562;8.856;2022-07-12T21:39:42;7.53;;;3.88;;
51020;SDS011;38907;45.562;8.856;2022-07-12T21:44:46;7.85;;;3.63;;
51020;SDS011;38907;45.562;8.856;2022-07-12T21:49:49;5.15;;;3.40;;
51020;SDS011;38907;45.562;8.856;2022-07-12T21:54:51;8.85;;;3.50;;
51020;SDS011;38907;45.562;8.856;2022-07-12T21:59:56;5.00;;;3.30;;
51020;SDS011;38907;45.562;8.856;2022-07-12T22:04:58;6.20;;;3.13;;
51020;SDS011;38907;45.562;8.856;2022-07-12T22:10:01;3.72;;;3.33;;
51020;SDS011;38907;45.562;8.856;2022-07-12T22:15:06;7.05;;;3.08;;
51020;SDS011;38907;45.562;8.856;2022-07-12T22:20:09;7.43;;;3.83;;
51020;SDS011;38907;45.562;8.856;2022-07-12T22:25:12;7.75;;;3.60;;
51020;SDS011;38907;45.562;8.856;2022-07-12T22:30:16;7.95;;;3.67;;
51020;SDS011;38907;45.562;8.856;2022-07-12T22:35:19;10.10;;;3.38;;
51020;SDS011;38907;45.562;8.856;2022-07-12T22:40:22;9.25;;;3.78;;
51020;SDS011;38907;45.562;8.856;2022-07-12T22:45:26;5.63;;;3.88;;
51020;SDS011;38907;45.562;8.856;2022-07-12T22:50:28;15.00;;;4.20;;
51020;SDS011;38907;45.562;8.856;2022-07-12T22:55:48;9.48;;;4.97;;
51020;SDS011;38907;45.562;8.856;2022-07-12T23:00:52;6.22;;;3.45;;
51020;SDS011;38907;45.562;8.856;2022-07-12T23:05:55;3.65;;;3.22;;
51020;SDS011;38907;45.562;8.856;2022-07-12T23:10:57;6.35;;;3.80;;
51020;SDS011;38907;45.562;8.856;2022-07-12T23:16:01;8.82;;;3.15;;
51020;SDS011;38907;45.562;8.856;2022-07-12T23:21:04;11.10;;;3.30;;
51020;SDS011;38907;45.562;8.856;2022-07-12T23:26:07;6.35;;;3.30;;
51020;SDS011;38907;45.562;8.856;2022-07-12T23:31:13;5.15;;;2.63;;
51020;SDS011;38907;45.562;8.856;2022-07-12T23:36:15;8.40;;;2.80;;
51020;SDS011;38907;45.562;8.856;2022-07-12T23:41:18;5.40;;;3.03;;
51020;SDS011;38907;45.562;8.856;2022-07-12T23:46:22;4.25;;;2.55;;
51020;SDS011;38907;45.562;8.856;2022-07-12T23:51:25;7.22;;;2.60;;
51020;SDS011;38907;45.562;8.856;2022-07-12T23:56:28;7.95;;;2.53;;
